sensor_id;sensor_type;location;lat;lon;timestamp;pressure;altitude;pressure_sealevel;temperature;humidity
39267;BME280;24967;51.154;13.812;2023-01-31T00:00:23;99378.31;;;3.80;81.39
39267;BME280;24967;51.154;13.812;2023-01-31T00:02:49;99369.28;;;3.71;81.80
39267;BME280;24967;51.154;13.812;2023-01-31T00:05:15;99368.28;;;3.61;81.82
39267;BME280;24967;51.154;13.812;2023-01-31T00:07:43;99379.69;;;3.49;82.73
39267;BME280;24967;51.154;13.812;2023-01-31T00:10:10;99379.34;;;3.53;82.15
39267;BME280;24967;51.154;13.812;2023-01-31T00:12:37;99387.34;;;3.52;81.71
39267;BME280;24967;51.154;13.812;2023-01-31T00:15:04;99393.00;;;3.58;82.03
39267;BME280;24967;51.154;13.812;2023-01-31T00:17:30;99390.88;;;3.63;81.41
39267;BME280;24967;51.154;13.812;2023-01-31T00:19:57;99400.31;;;3.42;81.97
39267;BME280;24967;51.154;13.812;2023-01-31T00:22:23;99389.25;;;3.37;82.18
39267;BME280;24967;51.154;13.812;2023-01-31T00:24:51;99384.22;;;3.34;82.63
39267;BME280;24967;51.154;13.812;2023-01-31T00:27:17;99389.25;;;3.37;82.42
39267;BME280;24967;51.154;13.812;2023-01-31T00:29:45;99400.81;;;3.34;82.90
39267;BME280;24967;51.154;13.812;2023-01-31T00:32:11;99398.72;;;3.27;84.17
39267;BME280;24967;51.154;13.812;2023-01-31T00:34:38;99387.03;;;3.43;83.34
39267;BME280;24967;51.154;13.812;2023-01-31T00:37:04;99398.19;;;3.34;84.06
39267;BME280;24967;51.154;13.812;2023-01-31T00:39:30;99399.34;;;3.43;84.49
39267;BME280;24967;51.154;13.812;2023-01-31T00:41:56;99396.19;;;3.38;84.69
39267;BME280;24967;51.154;13.812;2023-01-31T00:44:23;99392.72;;;3.37;84.42
39267;BME280;24967;51.154;13.812;2023-01-31T00:46:50;99397.56;;;3.43;84.48
39267;BME280;24967;51.154;13.812;2023-01-31T00:49:16;99398.47;;;3.55;83.72
39267;BME280;24967;51.154;13.812;2023-01-31T00:51:43;99392.38;;;3.55;82.80
39267;BME280;24967;51.154;13.812;2023-01-31T00:54:09;99397.19;;;3.61;82.42
39267;BME280;24967;51.154;13.812;2023-01-31T00:56:36;99395.03;;;3.79;81.96
39267;BME280;24967;51.154;13.812;2023-01-31T00:59:02;99418.84;;;3.64;82.43
39267;BME280;24967;51.154;13.812;2023-01-31T01:01:32;99414.47;;;3.52;82.52
39267;BME280;24967;51.154;13.812;2023-01-31T01:04:00;99428.78;;;3.35;82.75
39267;BME280;24967;51.154;13.812;2023-01-31T01:06:27;99423.75;;;3.45;82.50
39267;BME280;24967;51.154;13.812;2023-01-31T01:08:54;99435.41;;;3.41;82.23
39267;BME280;24967;51.154;13.812;2023-01-31T01:11:22;99442.03;;;3.34;82.54
39267;BME280;24967;51.154;13.812;2023-01-31T01:13:48;99437.72;;;3.20;83.16
39267;BME280;24967;51.154;13.812;2023-01-31T01:16:16;99447.19;;;3.22;82.66
39267;BME280;24967;51.154;13.812;2023-01-31T01:18:43;99439.75;;;3.04;82.84
39267;BME280;24967;51.154;13.812;2023-01-31T01:21:14;99453.69;;;3.17;82.46
39267;BME280;24967;51.154;13.812;2023-01-31T01:23:41;99456.13;;;3.20;82.09
39267;BME280;24967;51.154;13.812;2023-01-31T01:26:11;99458.13;;;3.16;81.55
39267;BME280;24967;51.154;13.812;2023-01-31T01:28:38;99462.41;;;3.05;81.57
39267;BME280;24967;51.154;13.812;2023-01-31T01:31:05;99474.31;;;3.10;81.03
39267;BME280;24967;51.154;13.812;2023-01-31T01:33:31;99469.25;;;3.07;81.15
39267;BME280;24967;51.154;13.812;2023-01-31T01:35:58;99483.22;;;3.08;81.31
39267;BME280;24967;51.154;13.812;2023-01-31T01:38:26;99481.66;;;3.05;81.72
39267;BME280;24967;51.154;13.812;2023-01-31T01:40:52;99481.56;;;3.07;81.81
39267;BME280;24967;51.154;13.812;2023-01-31T01:43:19;99477.25;;;3.06;83.09
39267;BME280;24967;51.154;13.812;2023-01-31T01:45:45;99469.13;;;2.96;83.22
39267;BME280;24967;51.154;13.812;2023-01-31T01:48:12;99480.56;;;2.69;85.67
39267;BME280;24967;51.154;13.812;2023-01-31T01:50:43;99480.22;;;2.61;87.41
39267;BME280;24967;51.154;13.812;2023-01-31T01:53:13;99488.97;;;2.87;86.79
39267;BME280;24967;51.154;13.812;2023-01-31T01:55:43;99495.19;;;2.86;86.20
39267;BME280;24967;51.154;13.812;2023-01-31T01:58:12;99510.31;;;2.83;86.51
39267;BME280;24967;51.154;13.812;2023-01-31T02:00:39;99511.97;;;2.84;85.96
39267;BME280;24967;51.154;13.812;2023-01-31T02:03:06;99498.69;;;3.00;85.93
39267;BME280;24967;51.154;13.812;2023-01-31T02:05:34;99503.94;;;3.00;86.00
39267;BME280;24967;51.154;13.812;2023-01-31T02:08:01;99498.13;;;2.82;86.55
39267;BME280;24967;51.154;13.812;2023-01-31T02:10:29;99508.97;;;3.03;85.97
39267;BME280;24967;51.154;13.812;2023-01-31T02:12:57;99513.34;;;2.89;87.25
39267;BME280;24967;51.154;13.812;2023-01-31T02:15:24;99510.41;;;2.81;89.65
39267;BME280;24967;51.154;13.812;2023-01-31T02:17:51;99516.44;;;3.09;88.95
39267;BME280;24967;51.154;13.812;2023-01-31T02:20:25;99522.91;;;2.90;90.12
39267;BME280;24967;51.154;13.812;2023-01-31T02:22:59;99532.00;;;2.72;92.72
39267;BME280;24967;51.154;13.812;2023-01-31T02:25:51;99538.00;;;2.74;93.52
39267;BME280;24967;51.154;13.812;2023-01-31T02:28:30;99538.00;;;2.74;94.60
39267;BME280;24967;51.154;13.812;2023-01-31T02:31:24;99541.25;;;2.78;93.63
39267;BME280;24967;51.154;13.812;2023-01-31T02:33:58;99550.66;;;2.94;93.81
39267;BME280;24967;51.154;13.812;2023-01-31T02:36:28;99549.53;;;3.11;92.83
39267;BME280;24967;51.154;13.812;2023-01-31T02:39:01;99542.16;;;3.04;91.87
39267;BME280;24967;51.154;13.812;2023-01-31T02:41:31;99540.59;;;3.01;92.20
39267;BME280;24967;51.154;13.812;2023-01-31T02:44:04;99543.13;;;3.03;91.29
39267;BME280;24967;51.154;13.812;2023-01-31T02:46:54;99534.09;;;3.19;89.77
39267;BME280;24967;51.154;13.812;2023-01-31T02:49:23;99533.59;;;3.27;88.98
39267;BME280;24967;51.154;13.812;2023-01-31T02:52:00;99545.84;;;3.27;88.14
39267;BME280;24967;51.154;13.812;2023-01-31T02:54:41;99551.94;;;3.02;87.94
39267;BME280;24967;51.154;13.812;2023-01-31T02:57:22;99560.47;;;3.18;87.76
39267;BME280;24967;51.154;13.812;2023-01-31T02:59:49;99552.25;;;2.97;86.03
39267;BME280;24967;51.154;13.812;2023-01-31T03:02:16;99574.34;;;3.20;85.95
39267;BME280;24967;51.154;13.812;2023-01-31T03:04:44;99567.41;;;3.06;85.24
39267;BME280;24967;51.154;13.812;2023-01-31T03:07:12;99566.56;;;3.06;84.87
39267;BME280;24967;51.154;13.812;2023-01-31T03:09:40;99590.00;;;3.09;84.41
39267;BME280;24967;51.154;13.812;2023-01-31T03:12:15;99586.09;;;3.14;84.55
39267;BME280;24967;51.154;13.812;2023-01-31T03:14:45;99602.72;;;3.15;83.96
39267;BME280;24967;51.154;13.812;2023-01-31T03:17:13;99595.25;;;3.09;84.45
39267;BME280;24967;51.154;13.812;2023-01-31T03:19:59;99603.84;;;3.11;82.86
39267;BME280;24967;51.154;13.812;2023-01-31T03:22:29;99619.19;;;3.04;84.13
39267;BME280;24967;51.154;13.812;2023-01-31T03:24:56;99608.19;;;3.12;84.06
39267;BME280;24967;51.154;13.812;2023-01-31T03:27:24;99616.91;;;3.12;83.74
39267;BME280;24967;51.154;13.812;2023-01-31T03:29:51;99636.97;;;3.13;83.61
39267;BME280;24967;51.154;13.812;2023-01-31T03:32:22;99636.31;;;3.10;84.68
39267;BME280;24967;51.154;13.812;2023-01-31T03:34:49;99636.50;;;2.94;85.38
39267;BME280;24967;51.154;13.812;2023-01-31T03:37:19;99641.47;;;2.84;86.13
39267;BME280;24967;51.154;13.812;2023-01-31T03:39:50;99628.09;;;3.02;86.65
39267;BME280;24967;51.154;13.812;2023-01-31T03:42:18;99626.72;;;2.96;86.94
39267;BME280;24967;51.154;13.812;2023-01-31T03:44:48;99624.44;;;3.04;86.53
39267;BME280;24967;51.154;13.812;2023-01-31T03:47:18;99636.94;;;3.01;87.54
39267;BME280;24967;51.154;13.812;2023-01-31T03:49:48;99631.50;;;3.16;85.84
39267;BME280;24967;51.154;13.812;2023-01-31T03:52:16;99633.47;;;3.00;86.06
39267;BME280;24967;51.154;13.812;2023-01-31T03:54:49;99624.97;;;3.09;85.95
39267;BME280;24967;51.154;13.812;2023-01-31T03:57:19;99632.16;;;3.33;85.15
39267;BME280;24967;51.154;13.812;2023-01-31T03:59:49;99634.91;;;3.31;85.09
39267;BME280;24967;51.154;13.812;2023-01-31T04:02:18;99633.03;;;3.33;85.09
39267;BME280;24967;51.154;13.812;2023-01-31T04:04:47;99649.53;;;3.08;86.17
39267;BME280;24967;51.154;13.812;2023-01-31T04:07:15;99656.19;;;3.14;86.18
39267;BME280;24967;51.154;13.812;2023-01-31T04:09:41;99647.22;;;3.04;86.86
39267;BME280;24967;51.154;13.812;2023-01-31T04:12:09;99652.28;;;3.07;87.05
39267;BME280;24967;51.154;13.812;2023-01-31T04:14:36;99649.84;;;3.04;87.59
39267;BME280;24967;51.154;13.812;2023-01-31T04:17:03;99645.19;;;3.21;86.49
39267;BME280;24967;51.154;13.812;2023-01-31T04:19:29;99646.22;;;3.19;87.10
39267;BME280;24967;51.154;13.812;2023-01-31T04:21:55;99660.75;;;3.25;86.71
39267;BME280;24967;51.154;13.812;2023-01-31T04:24:22;99659.97;;;3.10;87.36
39267;BME280;24967;51.154;13.812;2023-01-31T04:26:48;99673.44;;;3.18;87.88
39267;BME280;24967;51.154;13.812;2023-01-31T04:29:16;99680.06;;;3.24;87.56
39267;BME280;24967;51.154;13.812;2023-01-31T04:31:42;99688.22;;;3.06;89.18
39267;BME280;24967;51.154;13.812;2023-01-31T04:34:08;99690.97;;;2.63;91.75
39267;BME280;24967;51.154;13.812;2023-01-31T04:36:34;99702.84;;;2.69;93.74
39267;BME280;24967;51.154;13.812;2023-01-31T04:39:01;99686.56;;;2.64;95.09
39267;BME280;24967;51.154;13.812;2023-01-31T04:41:27;99699.41;;;2.95;93.14
39267;BME280;24967;51.154;13.812;2023-01-31T04:43:53;99697.97;;;3.04;91.97
39267;BME280;24967;51.154;13.812;2023-01-31T04:46:21;99706.69;;;3.05;91.95
39267;BME280;24967;51.154;13.812;2023-01-31T04:48:47;99701.06;;;3.24;90.61
39267;BME280;24967;51.154;13.812;2023-01-31T04:51:14;99702.63;;;3.40;89.92
39267;BME280;24967;51.154;13.812;2023-01-31T04:53:41;99701.25;;;3.48;89.04
39267;BME280;24967;51.154;13.812;2023-01-31T04:56:08;99701.66;;;3.41;89.25
39267;BME280;24967;51.154;13.812;2023-01-31T04:58:34;99706.00;;;3.42;88.08
39267;BME280;24967;51.154;13.812;2023-01-31T05:01:00;99698.97;;;3.56;88.13
39267;BME280;24967;51.154;13.812;2023-01-31T05:03:28;99693.91;;;3.53;87.83
39267;BME280;24967;51.154;13.812;2023-01-31T05:05:55;99690.22;;;3.42;87.97
39267;BME280;24967;51.154;13.812;2023-01-31T05:08:21;99695.19;;;3.20;89.37
39267;BME280;24967;51.154;13.812;2023-01-31T05:10:47;99703.38;;;3.15;89.03
39267;BME280;24967;51.154;13.812;2023-01-31T05:13:14;99699.72;;;3.18;88.62
39267;BME280;24967;51.154;13.812;2023-01-31T05:15:40;99697.97;;;3.31;88.42
39267;BME280;24967;51.154;13.812;2023-01-31T05:18:06;99715.41;;;3.32;88.27
39267;BME280;24967;51.154;13.812;2023-01-31T05:20:35;99710.47;;;3.28;87.04
39267;BME280;24967;51.154;13.812;2023-01-31T05:23:03;99720.53;;;3.21;87.19
39267;BME280;24967;51.154;13.812;2023-01-31T05:25:30;99724.44;;;3.28;86.53
39267;BME280;24967;51.154;13.812;2023-01-31T05:27:56;99719.19;;;3.28;85.16
39267;BME280;24967;51.154;13.812;2023-01-31T05:30:22;99724.41;;;3.15;85.43
39267;BME280;24967;51.154;13.812;2023-01-31T05:32:49;99733.50;;;3.37;84.54
39267;BME280;24967;51.154;13.812;2023-01-31T05:35:15;99722.94;;;3.51;84.53
39267;BME280;24967;51.154;13.812;2023-01-31T05:37:43;99730.47;;;3.43;84.94
39267;BME280;24967;51.154;13.812;2023-01-31T05:40:10;99733.16;;;3.68;83.84
39267;BME280;24967;51.154;13.812;2023-01-31T05:42:37;99732.38;;;4.06;82.60
39267;BME280;24967;51.154;13.812;2023-01-31T05:45:04;99718.38;;;3.93;82.64
39267;BME280;24967;51.154;13.812;2023-01-31T05:47:31;99726.66;;;3.74;82.63
39267;BME280;24967;51.154;13.812;2023-01-31T05:49:57;99724.91;;;3.48;84.27
39267;BME280;24967;51.154;13.812;2023-01-31T05:52:24;99728.50;;;3.47;85.03
39267;BME280;24967;51.154;13.812;2023-01-31T05:54:51;99720.06;;;3.41;85.25
39267;BME280;24967;51.154;13.812;2023-01-31T05:57:18;99726.28;;;3.53;84.46
39267;BME280;24967;51.154;13.812;2023-01-31T05:59:44;99730.91;;;3.50;84.31
39267;BME280;24967;51.154;13.812;2023-01-31T06:02:11;99728.66;;;3.31;85.65
39267;BME280;24967;51.154;13.812;2023-01-31T06:04:38;99731.72;;;3.37;85.50
39267;BME280;24967;51.154;13.812;2023-01-31T06:07:04;99721.84;;;3.41;84.78
39267;BME280;24967;51.154;13.812;2023-01-31T06:09:31;99725.88;;;3.47;84.86
39267;BME280;24967;51.154;13.812;2023-01-31T06:11:58;99727.84;;;3.43;85.57
39267;BME280;24967;51.154;13.812;2023-01-31T06:14:25;99725.31;;;3.41;86.41
39267;BME280;24967;51.154;13.812;2023-01-31T06:16:51;99727.91;;;3.29;87.17
39267;BME280;24967;51.154;13.812;2023-01-31T06:19:17;99732.72;;;3.22;88.28
39267;BME280;24967;51.154;13.812;2023-01-31T06:21:45;99738.78;;;3.37;87.02
39267;BME280;24967;51.154;13.812;2023-01-31T06:24:12;99728.53;;;3.32;86.78
39267;BME280;24967;51.154;13.812;2023-01-31T06:26:38;99729.19;;;3.36;86.94
39267;BME280;24967;51.154;13.812;2023-01-31T06:29:06;99737.34;;;3.18;88.50
39267;BME280;24967;51.154;13.812;2023-01-31T06:31:33;99733.88;;;3.18;88.80
39267;BME280;24967;51.154;13.812;2023-01-31T06:33:59;99736.19;;;3.22;89.60
39267;BME280;24967;51.154;13.812;2023-01-31T06:36:25;99733.53;;;2.95;91.32
39267;BME280;24967;51.154;13.812;2023-01-31T06:38:52;99738.44;;;2.87;92.25
39267;BME280;24967;51.154;13.812;2023-01-31T06:41:19;99736.53;;;3.04;92.00
39267;BME280;24967;51.154;13.812;2023-01-31T06:43:45;99739.63;;;2.96;91.96
39267;BME280;24967;51.154;13.812;2023-01-31T06:46:13;99739.25;;;3.02;92.58
39267;BME280;24967;51.154;13.812;2023-01-31T06:48:39;99748.53;;;2.93;92.71
39267;BME280;24967;51.154;13.812;2023-01-31T06:51:06;99738.19;;;3.19;92.01
39267;BME280;24967;51.154;13.812;2023-01-31T06:53:32;99737.47;;;3.03;92.21
39267;BME280;24967;51.154;13.812;2023-01-31T06:55:58;99743.72;;;3.14;91.98
39267;BME280;24967;51.154;13.812;2023-01-31T06:58:25;99741.59;;;3.07;91.69
39267;BME280;24967;51.154;13.812;2023-01-31T07:00:52;99743.63;;;3.16;91.03
39267;BME280;24967;51.154;13.812;2023-01-31T07:03:20;99751.34;;;3.32;90.15
39267;BME280;24967;51.154;13.812;2023-01-31T07:05:46;99749.69;;;3.31;89.62
39267;BME280;24967;51.154;13.812;2023-01-31T07:08:13;99755.72;;;3.46;88.46
39267;BME280;24967;51.154;13.812;2023-01-31T07:10:39;99747.28;;;3.40;88.50
39267;BME280;24967;51.154;13.812;2023-01-31T07:13:06;99756.63;;;3.32;88.43
39267;BME280;24967;51.154;13.812;2023-01-31T07:15:32;99766.84;;;3.36;88.28
39267;BME280;24967;51.154;13.812;2023-01-31T07:17:59;99774.41;;;3.41;87.40
39267;BME280;24967;51.154;13.812;2023-01-31T07:20:26;99761.88;;;3.32;88.25
39267;BME280;24967;51.154;13.812;2023-01-31T07:22:53;99761.50;;;3.51;87.71
39267;BME280;24967;51.154;13.812;2023-01-31T07:25:19;99766.25;;;3.46;87.39
39267;BME280;24967;51.154;13.812;2023-01-31T07:27:46;99767.44;;;3.27;88.80
39267;BME280;24967;51.154;13.812;2023-01-31T07:30:13;99774.53;;;3.39;87.87
39267;BME280;24967;51.154;13.812;2023-01-31T07:32:39;99761.19;;;3.42;88.80
39267;BME280;24967;51.154;13.812;2023-01-31T07:35:06;99777.03;;;3.41;88.43
39267;BME280;24967;51.154;13.812;2023-01-31T07:37:34;99772.53;;;3.16;90.34
39267;BME280;24967;51.154;13.812;2023-01-31T07:40:00;99769.06;;;3.15;91.36
39267;BME280;24967;51.154;13.812;2023-01-31T07:42:26;99774.56;;;3.25;92.39
39267;BME280;24967;51.154;13.812;2023-01-31T07:44:53;99764.91;;;3.11;92.80
39267;BME280;24967;51.154;13.812;2023-01-31T07:47:19;99774.00;;;3.20;94.15
39267;BME280;24967;51.154;13.812;2023-01-31T07:49:45;99777.19;;;3.25;93.32
39267;BME280;24967;51.154;13.812;2023-01-31T07:52:14;99763.50;;;3.20;94.16
39267;BME280;24967;51.154;13.812;2023-01-31T07:54:42;99763.50;;;3.20;94.45
39267;BME280;24967;51.154;13.812;2023-01-31T07:57:09;99762.50;;;3.35;93.29
39267;BME280;24967;51.154;13.812;2023-01-31T07:59:35;99767.53;;;3.26;93.35
39267;BME280;24967;51.154;13.812;2023-01-31T08:02:01;99764.25;;;3.22;93.75
39267;BME280;24967;51.154;13.812;2023-01-31T08:04:45;99778.53;;;3.18;93.66
39267;BME280;24967;51.154;13.812;2023-01-31T08:07:11;99774.16;;;3.31;92.71
39267;BME280;24967;51.154;13.812;2023-01-31T08:09:38;99771.69;;;3.70;90.42
39267;BME280;24967;51.154;13.812;2023-01-31T08:12:06;99783.69;;;3.47;90.14
39267;BME280;24967;51.154;13.812;2023-01-31T08:14:32;99779.28;;;3.47;89.94
39267;BME280;24967;51.154;13.812;2023-01-31T08:16:58;99774.72;;;3.36;90.09
39267;BME280;24967;51.154;13.812;2023-01-31T08:19:25;99773.63;;;3.53;89.72
39267;BME280;24967;51.154;13.812;2023-01-31T08:21:51;99776.78;;;3.58;88.79
39267;BME280;24967;51.154;13.812;2023-01-31T08:24:18;99776.69;;;3.33;88.49
39267;BME280;24967;51.154;13.812;2023-01-31T08:26:44;99778.75;;;3.42;89.17
39267;BME280;24967;51.154;13.812;2023-01-31T08:29:12;99772.56;;;3.56;87.93
39267;BME280;24967;51.154;13.812;2023-01-31T08:31:39;99774.03;;;3.60;86.22
39267;BME280;24967;51.154;13.812;2023-01-31T08:34:05;99778.91;;;3.66;86.55
39267;BME280;24967;51.154;13.812;2023-01-31T08:36:32;99779.78;;;3.66;87.00
39267;BME280;24967;51.154;13.812;2023-01-31T08:38:59;99777.88;;;3.68;86.46
39267;BME280;24967;51.154;13.812;2023-01-31T08:41:26;99774.81;;;3.62;85.68
39267;BME280;24967;51.154;13.812;2023-01-31T08:43:53;99777.59;;;3.46;85.28
39267;BME280;24967;51.154;13.812;2023-01-31T08:46:22;99775.56;;;3.64;84.23
39267;BME280;24967;51.154;13.812;2023-01-31T08:48:48;99769.88;;;3.57;83.89
39267;BME280;24967;51.154;13.812;2023-01-31T08:51:15;99772.59;;;3.68;82.63
39267;BME280;24967;51.154;13.812;2023-01-31T08:53:41;99780.97;;;3.75;82.67
39267;BME280;24967;51.154;13.812;2023-01-31T08:56:08;99768.53;;;3.77;82.51
39267;BME280;24967;51.154;13.812;2023-01-31T08:58:36;99758.91;;;3.90;81.95
39267;BME280;24967;51.154;13.812;2023-01-31T09:01:03;99755.84;;;3.97;81.47
39267;BME280;24967;51.154;13.812;2023-01-31T09:03:31;99754.59;;;4.15;80.51
39267;BME280;24967;51.154;13.812;2023-01-31T09:05:58;99752.19;;;4.12;79.48
39267;BME280;24967;51.154;13.812;2023-01-31T09:08:25;99765.53;;;4.22;79.59
39267;BME280;24967;51.154;13.812;2023-01-31T09:10:51;99756.91;;;4.07;79.26
39267;BME280;24967;51.154;13.812;2023-01-31T09:13:18;99752.69;;;4.17;78.41
39267;BME280;24967;51.154;13.812;2023-01-31T09:15:44;99755.44;;;4.16;78.69
39267;BME280;24967;51.154;13.812;2023-01-31T09:18:10;99755.44;;;4.28;77.77
39267;BME280;24967;51.154;13.812;2023-01-31T09:20:38;99752.19;;;4.25;77.19
39267;BME280;24967;51.154;13.812;2023-01-31T09:23:04;99757.31;;;4.13;76.88
39267;BME280;24967;51.154;13.812;2023-01-31T09:25:31;99746.16;;;4.35;76.03
39267;BME280;24967;51.154;13.812;2023-01-31T09:27:57;99758.59;;;4.33;75.62
39267;BME280;24967;51.154;13.812;2023-01-31T09:30:23;99751.94;;;4.53;75.44
39267;BME280;24967;51.154;13.812;2023-01-31T09:32:50;99741.13;;;4.45;74.45
39267;BME280;24967;51.154;13.812;2023-01-31T09:35:16;99740.47;;;4.54;74.62
39267;BME280;24967;51.154;13.812;2023-01-31T09:37:46;99748.03;;;4.72;73.22
39267;BME280;24967;51.154;13.812;2023-01-31T09:40:14;99749.09;;;4.69;74.12
39267;BME280;24967;51.154;13.812;2023-01-31T09:42:43;99738.25;;;4.61;72.99
39267;BME280;24967;51.154;13.812;2023-01-31T09:45:12;99739.53;;;4.55;73.41
39267;BME280;24967;51.154;13.812;2023-01-31T09:47:40;99745.84;;;4.53;73.70
39267;BME280;24967;51.154;13.812;2023-01-31T09:50:12;99727.03;;;4.83;72.48
39267;BME280;24967;51.154;13.812;2023-01-31T09:52:40;99729.34;;;4.88;72.29
39267;BME280;24967;51.154;13.812;2023-01-31T09:55:09;99722.75;;;4.69;72.24
39267;BME280;24967;51.154;13.812;2023-01-31T09:57:41;99720.66;;;4.62;72.36
39267;BME280;24967;51.154;13.812;2023-01-31T10:00:15;99723.88;;;4.78;72.38
39267;BME280;24967;51.154;13.812;2023-01-31T10:02:48;99717.50;;;4.69;72.54
39267;BME280;24967;51.154;13.812;2023-01-31T10:05:20;99725.59;;;4.79;73.29
39267;BME280;24967;51.154;13.812;2023-01-31T10:07:54;99707.59;;;4.73;73.40
39267;BME280;24967;51.154;13.812;2023-01-31T10:10:25;99706.75;;;4.72;72.65
39267;BME280;24967;51.154;13.812;2023-01-31T10:12:53;99703.94;;;4.87;73.60
39267;BME280;24967;51.154;13.812;2023-01-31T10:15:23;99712.09;;;5.08;72.84
39267;BME280;24967;51.154;13.812;2023-01-31T10:17:53;99698.69;;;5.11;72.27
39267;BME280;24967;51.154;13.812;2023-01-31T10:20:26;99701.41;;;5.22;72.37
39267;BME280;24967;51.154;13.812;2023-01-31T10:22:57;99702.16;;;5.11;72.46
39267;BME280;24967;51.154;13.812;2023-01-31T10:25:30;99707.78;;;5.07;72.36
39267;BME280;24967;51.154;13.812;2023-01-31T10:27:59;99701.56;;;5.08;72.34
39267;BME280;24967;51.154;13.812;2023-01-31T10:30:28;99691.38;;;5.03;72.06
39267;BME280;24967;51.154;13.812;2023-01-31T10:33:02;99692.66;;;4.97;72.31
39267;BME280;24967;51.154;13.812;2023-01-31T10:35:34;99694.25;;;5.11;72.14
39267;BME280;24967;51.154;13.812;2023-01-31T10:38:06;99686.13;;;5.14;72.18
39267;BME280;24967;51.154;13.812;2023-01-31T10:40:38;99692.19;;;5.03;71.86
39267;BME280;24967;51.154;13.812;2023-01-31T10:43:10;99687.66;;;5.30;72.02
39267;BME280;24967;51.154;13.812;2023-01-31T10:45:39;99678.16;;;4.79;71.54
39267;BME280;24967;51.154;13.812;2023-01-31T10:48:10;99675.38;;;4.93;71.94
39267;BME280;24967;51.154;13.812;2023-01-31T10:50:39;99667.50;;;4.93;71.16
39267;BME280;24967;51.154;13.812;2023-01-31T10:53:11;99657.81;;;5.05;71.27
39267;BME280;24967;51.154;13.812;2023-01-31T10:55:49;99660.06;;;4.98;71.39
39267;BME280;24967;51.154;13.812;2023-01-31T10:58:19;99657.03;;;4.92;70.89
39267;BME280;24967;51.154;13.812;2023-01-31T11:00:47;99653.97;;;4.98;70.98
39267;BME280;24967;51.154;13.812;2023-01-31T11:03:14;99649.03;;;4.69;70.92
39267;BME280;24967;51.154;13.812;2023-01-31T11:05:42;99645.22;;;4.73;70.93
39267;BME280;24967;51.154;13.812;2023-01-31T11:08:16;99649.66;;;4.73;71.14
39267;BME280;24967;51.154;13.812;2023-01-31T11:10:50;99640.69;;;4.63;70.88
39267;BME280;24967;51.154;13.812;2023-01-31T11:13:18;99618.13;;;4.71;70.47
39267;BME280;24967;51.154;13.812;2023-01-31T11:15:44;99614.84;;;4.80;70.78
39267;BME280;24967;51.154;13.812;2023-01-31T11:18:12;99615.03;;;4.66;71.02
39267;BME280;24967;51.154;13.812;2023-01-31T11:20:43;99622.63;;;4.58;71.57
39267;BME280;24967;51.154;13.812;2023-01-31T11:23:11;99619.16;;;4.81;71.77
39267;BME280;24967;51.154;13.812;2023-01-31T11:25:39;99618.81;;;4.86;71.37
39267;BME280;24967;51.154;13.812;2023-01-31T11:28:23;99606.91;;;4.69;71.62
39267;BME280;24967;51.154;13.812;2023-01-31T11:30:53;99601.03;;;4.53;72.22
39267;BME280;24967;51.154;13.812;2023-01-31T11:33:39;99588.16;;;4.37;72.65
39267;BME280;24967;51.154;13.812;2023-01-31T11:36:06;99592.09;;;4.55;72.12
39267;BME280;24967;51.154;13.812;2023-01-31T11:38:33;99582.31;;;4.69;71.23
39267;BME280;24967;51.154;13.812;2023-01-31T11:40:59;99576.16;;;4.81;71.06
39267;BME280;24967;51.154;13.812;2023-01-31T11:43:28;99578.91;;;4.79;69.83
39267;BME280;24967;51.154;13.812;2023-01-31T11:45:55;99566.25;;;4.85;70.13
39267;BME280;24967;51.154;13.812;2023-01-31T11:48:23;99571.06;;;4.91;70.10
39267;BME280;24967;51.154;13.812;2023-01-31T11:50:50;99557.16;;;4.89;69.61
39267;BME280;24967;51.154;13.812;2023-01-31T11:53:19;99567.41;;;5.04;69.36
39267;BME280;24967;51.154;13.812;2023-01-31T11:55:48;99561.59;;;4.88;69.34
39267;BME280;24967;51.154;13.812;2023-01-31T11:58:16;99544.66;;;5.03;69.40
39267;BME280;24967;51.154;13.812;2023-01-31T12:00:51;99545.72;;;5.01;69.05
39267;BME280;24967;51.154;13.812;2023-01-31T12:03:19;99532.44;;;5.02;68.51
39267;BME280;24967;51.154;13.812;2023-01-31T12:05:48;99519.63;;;5.09;69.49
39267;BME280;24967;51.154;13.812;2023-01-31T12:08:24;99515.19;;;5.10;69.32
39267;BME280;24967;51.154;13.812;2023-01-31T12:10:52;99494.34;;;5.07;69.10
39267;BME280;24967;51.154;13.812;2023-01-31T12:13:19;99504.09;;;5.28;68.64
39267;BME280;24967;51.154;13.812;2023-01-31T12:15:48;99509.34;;;5.17;68.36
39267;BME280;24967;51.154;13.812;2023-01-31T12:18:19;99514.38;;;5.20;68.50
39267;BME280;24967;51.154;13.812;2023-01-31T12:20:47;99511.72;;;5.20;69.01
39267;BME280;24967;51.154;13.812;2023-01-31T12:23:22;99498.34;;;5.35;68.45
39267;BME280;24967;51.154;13.812;2023-01-31T12:25:55;99497.00;;;5.29;68.69
39267;BME280;24967;51.154;13.812;2023-01-31T12:28:30;99493.78;;;5.25;68.33
39267;BME280;24967;51.154;13.812;2023-01-31T12:31:01;99485.41;;;5.32;68.87
39267;BME280;24967;51.154;13.812;2023-01-31T12:33:39;99481.34;;;5.39;68.47
39267;BME280;24967;51.154;13.812;2023-01-31T12:36:15;99476.31;;;5.36;68.46
39267;BME280;24967;51.154;13.812;2023-01-31T12:38:52;99464.56;;;5.40;68.73
39267;BME280;24967;51.154;13.812;2023-01-31T12:41:25;99460.97;;;5.41;68.55
39267;BME280;24967;51.154;13.812;2023-01-31T12:43:58;99466.81;;;5.44;68.09
39267;BME280;24967;51.154;13.812;2023-01-31T12:46:30;99468.88;;;5.63;69.07
39267;BME280;24967;51.154;13.812;2023-01-31T12:49:16;99461.94;;;5.40;69.31
39267;BME280;24967;51.154;13.812;2023-01-31T12:51:51;99468.84;;;5.07;72.47
39267;BME280;24967;51.154;13.812;2023-01-31T12:54:31;99463.66;;;4.94;74.46
39267;BME280;24967;51.154;13.812;2023-01-31T12:57:03;99453.75;;;5.09;74.49
39267;BME280;24967;51.154;13.812;2023-01-31T12:59:44;99441.31;;;5.22;74.63
39267;BME280;24967;51.154;13.812;2023-01-31T13:02:15;99436.16;;;5.32;73.78
39267;BME280;24967;51.154;13.812;2023-01-31T13:04:47;99437.34;;;5.17;74.00
39267;BME280;24967;51.154;13.812;2023-01-31T13:07:16;99428.00;;;5.13;73.61